Sara Borchard — V2BY8 — position and weather

sailwx.info

Track history (hours):
 
Tides and Currents Weather Stations Pressure Air Temp Water Temp Dewpoint Dewpoint Depression Visibility Wind Speed Wind Dir Waves Ship Positions

Sara Borchard

Last reported at 2014-Jul-22 11:31 UTC. Time now 2014-Jul-22 17:29 UTC.
Position N 32°12' E 034°34'.

Length 134 m; draft 7.1 m.

Type: Ship (hazmat cat A). MMSI: 304962000.

Date/timePositionNaut miles runAvg speedWind from/ knotsBaromVisibWave heightAir tempDewpointWater temp
2014-Jul-22 11:31N 32°12' E 034°34'1414.8
2014-Jul-22 10:33N 32°26' E 034°39'1514.6
2014-Jul-22 09:33N 32°40' E 034°44'17 1.4
2014-Jul-21 21:23N 32°55' E 034°35'5710.8
2014-Jul-21 16:07N 33°31' E 033°43'1012.4
2014-Jul-21 15:21N 33°40' E 033°38'3512.3
2014-Jul-21 12:31N 34°11' E 033°20'1212.2
2014-Jul-21 11:33N 34°22' E 033°13'1212.1
2014-Jul-21 10:33N 34°33' E 033°07'8 7.7
2014-Jul-21 09:31N 34°39' E 033°01'0 0.0
2014-Jul-21 08:28N 34°39' E 033°01'0 0.0
2014-Jul-21 07:31N 34°39' E 033°01'0 0.0
2014-Jul-21 06:33N 34°39' E 033°01'0 0.0
2014-Jul-21 05:33N 34°39' E 033°01'0 0.0
2014-Jul-21 04:33N 34°39' E 033°01'1 0.7
2014-Jul-21 03:33N 34°39' E 033°02'4 4.5
2014-Jul-21 02:33N 34°35' E 033°04'1313.1
2014-Jul-21 01:33N 34°32' E 032°48'1514.7
2014-Jul-21 00:33N 34°34' E 032°31'3114.5
2014-Jul-20 22:24N 34°38' E 031°53'1314.9
2014-Jul-20 21:32N 34°40' E 031°38'36016.3
2014-Jul-19 23:28N 35°41' E 024°23'1516.9
2014-Jul-19 22:33N 35°44' E 024°04'2117.4
2014-Jul-19 21:20N 35°45' E 023°38'1417.4
2014-Jul-19 20:33N 35°45' E 023°21'45716.3
2014-Jul-18 16:33N 39°01' E 014°41'1817.7
2014-Jul-18 15:33N 39°13' E 014°24'1817.8
2014-Jul-18 14:33N 39°25' E 014°07'1817.9
2014-Jul-18 13:33N 39°37' E 013°50'1817.9
2014-Jul-18 12:33N 39°49' E 013°33'1818.1
2014-Jul-18 11:33N 40°02' E 013°16'6117.8
2014-Jul-18 08:09N 40°42' E 012°16'1118.2
2014-Jul-18 07:33N 40°50' E 012°06'2217.3
2014-Jul-18 06:16N 41°05' E 011°44'1217.4
2014-Jul-18 05:33N 41°13' E 011°32'1817.6
2014-Jul-18 04:33N 41°25' E 011°15'4317.7
2014-Jul-18 02:08N 41°54' E 010°32'1617.6
2014-Jul-18 01:13N 42°05' E 010°16'1015.6
2014-Jul-18 00:33N 42°12' E 010°06'1716.7
2014-Jul-17 23:32N 42°26' E 009°54'1717.5
2014-Jul-17 22:33N 42°43' E 009°47'1817.5
2014-Jul-17 21:33N 42°59' E 009°40'1717.1
2014-Jul-17 20:33N 43°15' E 009°32'1817.7
2014-Jul-17 19:33N 43°32' E 009°24'1817.9
2014-Jul-17 18:33N 43°48' E 009°14'1717.4
2014-Jul-17 17:33N 44°05' E 009°06'1817.7
2014-Jul-17 16:33N 44°21' E 008°57'4 3.6
2014-Jul-17 15:31N 44°24' E 008°54'0 0.0
2014-Jul-17 14:34N 44°24' E 008°54'0 0.0
2014-Jul-17 13:33N 44°24' E 008°54'0 0.0
2014-Jul-17 12:33N 44°24' E 008°54'0 0.0
2014-Jul-17 11:33N 44°24' E 008°54'0 0.0
2014-Jul-17 10:33N 44°24' E 008°54'6 6.1
2014-Jul-17 09:33N 44°20' E 008°59'1313.4
2014-Jul-17 08:33N 44°10' E 008°46'1313.3
2014-Jul-17 07:34N 44°00' E 008°33'1413.6
2014-Jul-17 06:34N 43°51' E 008°20'1313.3
2014-Jul-17 05:34N 43°42' E 008°06'1313.3
2014-Jul-17 04:33N 43°33' E 007°52'1413.5
2014-Jul-17 03:33N 43°26' E 007°37'1413.6
2014-Jul-17 02:34N 43°18' E 007°22'1313.4
2014-Jul-17 01:33N 43°10' E 007°07'1313.2
2014-Jul-17 00:34N 43°03' E 006°52'1313.1
2014-Jul-16 23:34N 42°56' E 006°37'1312.8
2014-Jul-16 22:34N 42°54' E 006°19'1413.3
2014-Jul-16 21:33N 42°54' E 006°01'1312.9
2014-Jul-16 20:33N 42°57' E 005°44'1313.3
2014-Jul-16 19:34N 43°03' E 005°28'1313.3
2014-Jul-16 18:33N 43°08' E 005°11'1111.2
2014-Jul-16 17:33N 43°19' E 005°15'4 1.0
2014-Jul-16 13:30N 43°21' E 005°20'0 0.0
2014-Jul-16 12:23N 43°21' E 005°20'0 0.0
2014-Jul-16 10:16N 43°21' E 005°20'0 0.0
2014-Jul-16 09:32N 43°21' E 005°20'9 9.1
2014-Jul-16 08:33N 43°15' E 005°11'1814.3
2014-Jul-16 07:17N 42°59' E 004°59'1315.1
2014-Jul-16 06:26N 42°49' E 004°48'1213.8
2014-Jul-16 05:33N 42°41' E 004°36'1413.8
2014-Jul-16 04:33N 42°30' E 004°23'1413.6
2014-Jul-16 03:33N 42°20' E 004°11'1313.2
2014-Jul-16 02:33N 42°12' E 003°57'1312.5
2014-Jul-16 01:33N 42°04' E 003°44'1414.0
2014-Jul-16 00:33N 41°56' E 003°29'1212.4
2014-Jul-15 23:33N 41°48' E 003°16'1414.1
2014-Jul-15 22:32N 41°40' E 003°01'1313.8
2014-Jul-15 21:33N 41°32' E 002°46'2613.2
2014-Jul-15 19:33N 41°17' E 002°16'6 0.8
2014-Jul-15 12:06N 41°21' E 002°10'3 5.4
2014-Jul-15 11:33N 41°18' E 002°10'1413.9
2014-Jul-15 10:32N 41°09' E 001°57'3432.4
2014-Jul-15 09:29N 40°50' E 001°19'0 0.2
2014-Jul-15 08:33N 40°50' E 001°19'1717.5
2014-Jul-15 07:33N 40°39' E 001°01'1817.8
2014-Jul-15 06:33N 40°27' E 000°44'1817.6
2014-Jul-15 05:33N 40°14' E 000°28'1817.6
2014-Jul-15 04:33N 40°02' E 000°12'9 1.7
2014-Jul-14 23:33N 39°58' E 000°02'2311.7
2014-Jul-14 21:33N 39°48' E 000°29'1717.4
2014-Jul-14 20:33N 39°41' E 000°50'2017.1
2014-Jul-14 19:23N 39°33' E 001°14'1417.4
2014-Jul-14 18:33N 39°28' E 001°31'1717.4
2014-Jul-14 17:33N 39°22' E 001°52'1817.5
2014-Jul-14 16:33N 39°15' E 002°13'1817.8
2014-Jul-14 15:33N 39°08' E 002°35'1818.1
2014-Jul-14 14:33N 39°01' E 002°56'1817.9
2014-Jul-14 13:33N 38°57' E 003°19'1818.0
2014-Jul-14 12:32N 38°52' E 003°41'10717.9
2014-Jul-14 06:33N 38°27' E 005°55'  
Track history (hours):
 
Tides and Currents Weather Stations Pressure Air Temp Water Temp Dewpoint Dewpoint Depression Visibility Wind Speed Wind Dir Waves Ship Positions

Sara Borchard

Last reported at 2014-Jul-22 11:31 UTC. Time now 2014-Jul-22 17:29 UTC.
Position N 32°12' E 034°34'.

Length 134 m; draft 7.1 m.

Type: Ship (hazmat cat A). MMSI: 304962000.

Date/timePositionNaut miles runAvg speedWind from/ knotsBaromVisibWave heightAir tempDewpointWater temp
2014-Jul-22 11:31N 32°12' E 034°34'1414.8
2014-Jul-22 10:33N 32°26' E 034°39'1514.6
2014-Jul-22 09:33N 32°40' E 034°44'17 1.4
2014-Jul-21 21:23N 32°55' E 034°35'5710.8
2014-Jul-21 16:07N 33°31' E 033°43'1012.4
2014-Jul-21 15:21N 33°40' E 033°38'3512.3
2014-Jul-21 12:31N 34°11' E 033°20'1212.2
2014-Jul-21 11:33N 34°22' E 033°13'1212.1
2014-Jul-21 10:33N 34°33' E 033°07'8 7.7
2014-Jul-21 09:31N 34°39' E 033°01'0 0.0
2014-Jul-21 08:28N 34°39' E 033°01'0 0.0
2014-Jul-21 07:31N 34°39' E 033°01'0 0.0
2014-Jul-21 06:33N 34°39' E 033°01'0 0.0
2014-Jul-21 05:33N 34°39' E 033°01'0 0.0
2014-Jul-21 04:33N 34°39' E 033°01'1 0.7
2014-Jul-21 03:33N 34°39' E 033°02'4 4.5
2014-Jul-21 02:33N 34°35' E 033°04'1313.1
2014-Jul-21 01:33N 34°32' E 032°48'1514.7
2014-Jul-21 00:33N 34°34' E 032°31'3114.5
2014-Jul-20 22:24N 34°38' E 031°53'1314.9
2014-Jul-20 21:32N 34°40' E 031°38'36016.3
2014-Jul-19 23:28N 35°41' E 024°23'1516.9
2014-Jul-19 22:33N 35°44' E 024°04'2117.4
2014-Jul-19 21:20N 35°45' E 023°38'1417.4
2014-Jul-19 20:33N 35°45' E 023°21'45716.3
2014-Jul-18 16:33N 39°01' E 014°41'1817.7
2014-Jul-18 15:33N 39°13' E 014°24'1817.8
2014-Jul-18 14:33N 39°25' E 014°07'1817.9
2014-Jul-18 13:33N 39°37' E 013°50'1817.9
2014-Jul-18 12:33N 39°49' E 013°33'1818.1
2014-Jul-18 11:33N 40°02' E 013°16'6117.8
2014-Jul-18 08:09N 40°42' E 012°16'1118.2
2014-Jul-18 07:33N 40°50' E 012°06'2217.3
2014-Jul-18 06:16N 41°05' E 011°44'1217.4
2014-Jul-18 05:33N 41°13' E 011°32'1817.6
2014-Jul-18 04:33N 41°25' E 011°15'4317.7
2014-Jul-18 02:08N 41°54' E 010°32'1617.6
2014-Jul-18 01:13N 42°05' E 010°16'1015.6
2014-Jul-18 00:33N 42°12' E 010°06'1716.7
2014-Jul-17 23:32N 42°26' E 009°54'1717.5
2014-Jul-17 22:33N 42°43' E 009°47'1817.5
2014-Jul-17 21:33N 42°59' E 009°40'1717.1
2014-Jul-17 20:33N 43°15' E 009°32'1817.7
2014-Jul-17 19:33N 43°32' E 009°24'1817.9
2014-Jul-17 18:33N 43°48' E 009°14'1717.4
2014-Jul-17 17:33N 44°05' E 009°06'1817.7
2014-Jul-17 16:33N 44°21' E 008°57'4 3.6
2014-Jul-17 15:31N 44°24' E 008°54'0 0.0
2014-Jul-17 14:34N 44°24' E 008°54'0 0.0
2014-Jul-17 13:33N 44°24' E 008°54'0 0.0
2014-Jul-17 12:33N 44°24' E 008°54'0 0.0
2014-Jul-17 11:33N 44°24' E 008°54'0 0.0
2014-Jul-17 10:33N 44°24' E 008°54'6 6.1
2014-Jul-17 09:33N 44°20' E 008°59'1313.4
2014-Jul-17 08:33N 44°10' E 008°46'1313.3
2014-Jul-17 07:34N 44°00' E 008°33'1413.6
2014-Jul-17 06:34N 43°51' E 008°20'1313.3
2014-Jul-17 05:34N 43°42' E 008°06'1313.3
2014-Jul-17 04:33N 43°33' E 007°52'1413.5
2014-Jul-17 03:33N 43°26' E 007°37'1413.6
2014-Jul-17 02:34N 43°18' E 007°22'1313.4
2014-Jul-17 01:33N 43°10' E 007°07'1313.2
2014-Jul-17 00:34N 43°03' E 006°52'1313.1
2014-Jul-16 23:34N 42°56' E 006°37'1312.8
2014-Jul-16 22:34N 42°54' E 006°19'1413.3
2014-Jul-16 21:33N 42°54' E 006°01'1312.9
2014-Jul-16 20:33N 42°57' E 005°44'1313.3
2014-Jul-16 19:34N 43°03' E 005°28'1313.3
2014-Jul-16 18:33N 43°08' E 005°11'1111.2
2014-Jul-16 17:33N 43°19' E 005°15'4 1.0
2014-Jul-16 13:30N 43°21' E 005°20'0 0.0
2014-Jul-16 12:23N 43°21' E 005°20'0 0.0
2014-Jul-16 10:16N 43°21' E 005°20'0 0.0
2014-Jul-16 09:32N 43°21' E 005°20'9 9.1
2014-Jul-16 08:33N 43°15' E 005°11'1814.3
2014-Jul-16 07:17N 42°59' E 004°59'1315.1
2014-Jul-16 06:26N 42°49' E 004°48'1213.8
2014-Jul-16 05:33N 42°41' E 004°36'1413.8
2014-Jul-16 04:33N 42°30' E 004°23'1413.6
2014-Jul-16 03:33N 42°20' E 004°11'1313.2
2014-Jul-16 02:33N 42°12' E 003°57'1312.5
2014-Jul-16 01:33N 42°04' E 003°44'1414.0
2014-Jul-16 00:33N 41°56' E 003°29'1212.4
2014-Jul-15 23:33N 41°48' E 003°16'1414.1
2014-Jul-15 22:32N 41°40' E 003°01'1313.8
2014-Jul-15 21:33N 41°32' E 002°46'2613.2
2014-Jul-15 19:33N 41°17' E 002°16'6 0.8
2014-Jul-15 12:06N 41°21' E 002°10'3 5.4
2014-Jul-15 11:33N 41°18' E 002°10'1413.9
2014-Jul-15 10:32N 41°09' E 001°57'3432.4
2014-Jul-15 09:29N 40°50' E 001°19'0 0.2
2014-Jul-15 08:33N 40°50' E 001°19'1717.5
2014-Jul-15 07:33N 40°39' E 001°01'1817.8
2014-Jul-15 06:33N 40°27' E 000°44'1817.6
2014-Jul-15 05:33N 40°14' E 000°28'1817.6
2014-Jul-15 04:33N 40°02' E 000°12'9 1.7
2014-Jul-14 23:33N 39°58' E 000°02'2311.7
2014-Jul-14 21:33N 39°48' E 000°29'1717.4
2014-Jul-14 20:33N 39°41' E 000°50'2017.1
2014-Jul-14 19:23N 39°33' E 001°14'1417.4
2014-Jul-14 18:33N 39°28' E 001°31'1717.4
2014-Jul-14 17:33N 39°22' E 001°52'1817.5
2014-Jul-14 16:33N 39°15' E 002°13'1817.8
2014-Jul-14 15:33N 39°08' E 002°35'1818.1
2014-Jul-14 14:33N 39°01' E 002°56'1817.9
2014-Jul-14 13:33N 38°57' E 003°19'1818.0
2014-Jul-14 12:32N 38°52' E 003°41'10717.9
2014-Jul-14 06:33N 38°27' E 005°55'  

Dump ship's entire track history